»·PEaware :: WAT169 KDEN-KLAS

WAT169 :: KDEN-KLAS

FLIGHT INFORMATION

Flight Status: Arrived
Operator:
Walker Air Transport
More flights by this operator :: More flights under this callsign
Pilot: Marty P. (27464)
Aircraft: BOEING 737-800
(B738)
More flights by this aircraft type
Origin: KDEN Denver Intl
United States
Destination: KLAS McCarran Intl
United States
More flights between these airports :: More routes between these airports
Route: CONNR7 WERNR ZAKRY GGAPP SITEE4
File this flight plan on PilotEdge
Remarks:
Altitude:
(Current/Filed)
38,000ft
Speed:
(Current/Filed)
480kts
Departed: 17-Sep-20 08:03 PM
Arrived: 17-Sep-20 09:26 PM
Distance/Time
Traveled:
545nm/1:22
Distance/Time
To Go:
Arrived

Flight Plot

Page will automatically refresh every two minutes.

Flight plan parsing failed; only flown route is shown


Map Options




Map Legend


Flown Route
Filed Route
Departure Airport
Arrival Airport
Navaid (VOR, NDB)
Fix

Horizontal Profiles

Position Reports

Time Latitude Longitude Heading Altitude Ground
Speed
17-Sep-20 19:35 39.863575 -104.677852 177 5444ft 0kts
17-Sep-20 19:37 39.863575 -104.677852 177 5444ft 0kts
17-Sep-20 19:38 39.863575 -104.677852 177 5444ft 0kts
17-Sep-20 19:39 39.863575 -104.677852 177 5444ft 0kts
17-Sep-20 19:40 39.863575 -104.677852 177 5444ft 0kts
17-Sep-20 19:41 39.863575 -104.677852 177 5444ft 0kts
17-Sep-20 19:42 39.863575 -104.677852 177 5444ft 0kts
17-Sep-20 19:43 39.863575 -104.677852 177 5444ft 0kts
17-Sep-20 19:44 39.863575 -104.677852 177 5444ft 0kts
17-Sep-20 19:45 39.863575 -104.677852 177 5444ft 0kts
17-Sep-20 19:46 39.863575 -104.677852 177 5444ft 0kts
17-Sep-20 19:47 39.863575 -104.677852 177 5444ft 0kts
17-Sep-20 19:48 39.863871 -104.677865 177 5444ft 2kts
17-Sep-20 19:49 39.864462 -104.677799 208 5444ft 2kts
17-Sep-20 19:50 39.864770 -104.677182 267 5444ft 1kts
17-Sep-20 19:51 39.864769 -104.677072 271 5444ft 0kts
17-Sep-20 19:52 39.864769 -104.677072 271 5444ft 0kts
17-Sep-20 19:53 39.864770 -104.677111 271 5444ft 0kts
17-Sep-20 19:54 39.864780 -104.678812 273 5444ft 0kts
17-Sep-20 19:55 39.864780 -104.678953 269 5444ft 2kts
17-Sep-20 19:55 39.864791 -104.680662 270 5444ft 9kts
17-Sep-20 19:56 39.863728 -104.683886 187 5444ft 12kts
17-Sep-20 19:57 39.859023 -104.683968 180 5444ft 16kts
17-Sep-20 19:59 39.855254 -104.684009 180 5444ft 16kts
17-Sep-20 19:59 39.850134 -104.684068 179 5444ft 21kts
17-Sep-20 20:00 39.845022 -104.684133 179 5444ft 14kts
17-Sep-20 20:01 39.841504 -104.684173 180 5444ft 13kts
17-Sep-20 20:02 39.840769 -104.700362 270 5444ft 145kts
17-Sep-20 20:03 39.841116 -104.772561 271 6934ft 232kts
17-Sep-20 20:04 39.842259 -104.871135 271 9273ft 302kts
17-Sep-20 20:05 39.827220 -104.984674 255 11660ft 356kts
17-Sep-20 20:06 39.800736 -105.116109 256 14715ft 374kts
17-Sep-20 20:07 39.774039 -105.248710 257 17543ft 386kts
17-Sep-20 20:08 39.746133 -105.385474 257 19959ft 398kts
17-Sep-20 20:09 39.717256 -105.525972 256 22151ft 409kts
17-Sep-20 20:10 39.688685 -105.670207 259 24166ft 416kts
17-Sep-20 20:11 39.667898 -105.819189 261 26033ft 424kts
17-Sep-20 20:12 39.647126 -105.971141 262 27691ft 432kts
17-Sep-20 20:13 39.625779 -106.126028 263 29058ft 442kts
17-Sep-20 20:14 39.603811 -106.284533 263 30436ft 448kts
17-Sep-20 20:15 39.581451 -106.444135 263 31880ft 449kts
17-Sep-20 20:16 39.559194 -106.601026 262 33614ft 439kts
17-Sep-20 20:17 39.521421 -106.750837 253 35239ft 434kts
17-Sep-20 20:18 39.477450 -106.895012 253 36654ft 427kts
17-Sep-20 20:19 39.433312 -107.036302 253 37768ft 421kts
17-Sep-20 20:20 39.389019 -107.176805 253 38348ft 426kts
17-Sep-20 20:21 39.340783 -107.319385 251 38347ft 440kts
17-Sep-20 20:22 39.290254 -107.464434 252 38347ft 446kts
17-Sep-20 20:23 39.239217 -107.611202 252 38347ft 449kts
17-Sep-20 20:24 39.187940 -107.758056 251 38347ft 452kts
17-Sep-20 20:25 39.136082 -107.905967 251 38347ft 453kts
17-Sep-20 20:26 39.084084 -108.053692 251 38332ft 453kts
17-Sep-20 20:27 39.031944 -108.201120 251 38271ft 454kts
17-Sep-20 20:28 38.979526 -108.348629 250 38256ft 453kts
17-Sep-20 20:29 38.927064 -108.495552 250 38265ft 452kts
17-Sep-20 20:30 38.874474 -108.642150 250 38273ft 452kts
17-Sep-20 20:31 38.821651 -108.788466 250 38274ft 452kts
17-Sep-20 20:32 38.768701 -108.934548 250 38275ft 452kts
17-Sep-20 20:33 38.715587 -109.080445 250 38239ft 453kts
17-Sep-20 20:34 38.662112 -109.226577 249 38192ft 453kts
17-Sep-20 20:35 38.608556 -109.372173 249 38192ft 452kts
17-Sep-20 20:36 38.554894 -109.517337 249 38174ft 452kts
17-Sep-20 20:37 38.501605 -109.660799 248 38174ft 452kts
17-Sep-20 20:38 38.447439 -109.805699 248 38173ft 453kts
17-Sep-20 20:39 38.393081 -109.950572 248 38173ft 454kts
17-Sep-20 20:40 38.338425 -110.095590 248 38182ft 453kts
17-Sep-20 20:41 38.283830 -110.239761 248 38201ft 453kts
17-Sep-20 20:42 38.228838 -110.384305 248 38210ft 453kts
17-Sep-20 20:43 38.173934 -110.527933 248 38210ft 453kts
17-Sep-20 20:44 38.119116 -110.670642 247 38210ft 453kts
17-Sep-20 20:45 38.063631 -110.814196 247 38210ft 453kts
17-Sep-20 20:46 38.008023 -110.957537 247 38210ft 453kts
17-Sep-20 20:47 37.952227 -111.100788 247 38210ft 454kts
17-Sep-20 20:48 37.896347 -111.243600 246 38295ft 453kts
17-Sep-20 20:49 37.840380 -111.385889 246 38401ft 451kts
17-Sep-20 20:50 37.784219 -111.528045 246 38402ft 451kts
17-Sep-20 20:51 37.728234 -111.669102 246 38402ft 451kts
17-Sep-20 20:52 37.671814 -111.810412 246 38402ft 451kts
17-Sep-20 20:53 37.615119 -111.951945 246 38402ft 452kts
17-Sep-20 20:54 37.558414 -112.092919 245 38402ft 451kts
17-Sep-20 20:55 37.493200 -112.228426 240 38402ft 454kts
17-Sep-20 20:56 37.426139 -112.362494 241 38401ft 453kts
17-Sep-20 20:57 37.360423 -112.497105 241 38241ft 445kts
17-Sep-20 20:58 37.297509 -112.626847 241 35782ft 425kts
17-Sep-20 20:59 37.235441 -112.754961 240 34009ft 442kts
17-Sep-20 21:00 37.171270 -112.887129 240 32207ft 449kts
17-Sep-20 21:01 37.105502 -113.022201 240 30403ft 459kts
17-Sep-20 21:02 37.038132 -113.160028 240 28600ft 470kts
17-Sep-20 21:03 36.969019 -113.300817 239 26797ft 480kts
17-Sep-20 21:04 36.898856 -113.443140 239 24999ft 485kts
17-Sep-20 21:05 36.828383 -113.585483 239 23184ft 477kts
17-Sep-20 21:06 36.759522 -113.724006 238 21268ft 452kts
17-Sep-20 21:07 36.694196 -113.854744 238 19278ft 443kts
17-Sep-20 21:08 36.629460 -113.982441 237 17324ft 430kts
17-Sep-20 21:09 36.566324 -114.106638 236 16101ft 418kts
17-Sep-20 21:10 36.502238 -114.229006 237 15384ft 421kts
17-Sep-20 21:11 36.442863 -114.344614 236 13480ft 363kts
17-Sep-20 21:12 36.393329 -114.440838 236 12069ft 306kts
17-Sep-20 21:13 36.347521 -114.529503 236 11432ft 308kts
17-Sep-20 21:14 36.302895 -114.611374 225 10118ft 268kts
17-Sep-20 21:15 36.240882 -114.654172 197 10025ft 260kts
17-Sep-20 21:16 36.171272 -114.680678 198 8356ft 260kts
17-Sep-20 21:17 36.108771 -114.709237 203 6999ft 202kts
17-Sep-20 21:18 36.079509 -114.760445 246 7023ft 191kts
17-Sep-20 21:19 36.073452 -114.826042 266 6995ft 197kts
17-Sep-20 21:20 36.073591 -114.893613 266 5951ft 192kts
17-Sep-20 21:21 36.073655 -114.959755 266 4869ft 193kts
17-Sep-20 21:22 36.073680 -115.026061 266 3804ft 191kts
17-Sep-20 21:23 36.073663 -115.084081 269 2891ft 159kts
17-Sep-20 21:24 36.073649 -115.137647 269 2192ft 116kts
17-Sep-20 21:25 36.074756 -115.145978 299 2191ft 0kts
17-Sep-20 21:26 36.076215 -115.146546 359 2191ft 12kts
17-Sep-20 21:27 36.077428 -115.146636 340 2191ft 0kts
17-Sep-20 21:28 36.077900 -115.146970 323 2191ft 8kts
17-Sep-20 21:29 36.080027 -115.147853 46 2191ft 1kts
17-Sep-20 21:30 36.080321 -115.147281 65 2191ft 0kts

Navigation Log

Ident Type
Flight plan parsing failed, navigation log unavailable